createdAt,value
2023-03-03T00:01:45.330Z,15.73
2023-03-03T00:04:13.755Z,16.00
2023-03-03T00:06:42.198Z,17.23
2023-03-03T00:09:10.591Z,14.40
2023-03-03T00:11:40.384Z,17.75
2023-03-03T00:14:23.204Z,18.10
2023-03-03T00:16:51.697Z,12.05
2023-03-03T00:19:21.942Z,15.63
2023-03-03T00:21:52.353Z,18.00
2023-03-03T00:24:24.545Z,22.77
2023-03-03T00:26:56.556Z,15.88
2023-03-03T00:29:35.906Z,16.77
2023-03-03T00:32:27.192Z,13.65
2023-03-03T00:34:57.585Z,13.43
2023-03-03T00:37:33.411Z,14.43
2023-03-03T00:40:19.977Z,23.35
2023-03-03T00:42:53.273Z,16.02
2023-03-03T00:45:36.478Z,16.42
2023-03-03T00:48:29.898Z,16.77
2023-03-03T00:51:00.159Z,19.45
2023-03-03T00:53:30.379Z,15.60
2023-03-03T00:55:59.451Z,17.63
2023-03-03T00:58:29.738Z,17.65
2023-03-03T01:00:58.925Z,17.80
2023-03-03T01:03:28.751Z,19.90
2023-03-03T01:05:57.291Z,18.92
2023-03-03T01:08:26.349Z,15.13
2023-03-03T01:10:58.486Z,15.73
2023-03-03T01:13:32.545Z,19.10
2023-03-03T01:16:01.377Z,15.40
2023-03-03T01:18:30.851Z,16.52
2023-03-03T01:20:59.415Z,14.05
2023-03-03T01:23:27.882Z,13.63
2023-03-03T01:25:56.453Z,17.45
2023-03-03T01:28:24.932Z,14.85
2023-03-03T01:30:55.147Z,18.05
2023-03-03T01:33:23.689Z,16.80
2023-03-03T01:35:52.152Z,16.75
2023-03-03T01:38:20.607Z,16.85
2023-03-03T01:40:56.091Z,16.60
2023-03-03T01:43:25.121Z,14.43
2023-03-03T01:46:53.593Z,16.75
2023-03-03T01:49:28.155Z,15.77
2023-03-03T01:52:02.817Z,18.38
2023-03-03T01:54:36.781Z,15.23
2023-03-03T01:57:13.280Z,15.15
2023-03-03T01:59:48.714Z,14.70
2023-03-03T02:02:18.763Z,11.93
2023-03-03T02:04:47.587Z,22.20
2023-03-03T02:07:17.835Z,16.73
2023-03-03T02:09:56.281Z,17.40
2023-03-03T02:12:33.588Z,21.73
2023-03-03T02:15:02.033Z,17.90
2023-03-03T02:17:32.007Z,15.43
2023-03-03T02:20:07.637Z,18.73
2023-03-03T02:22:45.357Z,19.30
2023-03-03T02:25:23.657Z,16.60
2023-03-03T02:27:53.937Z,16.50
2023-03-03T02:30:26.125Z,17.02
2023-03-03T02:32:54.568Z,19.58
2023-03-03T02:35:36.079Z,22.17
2023-03-03T02:38:15.910Z,22.63
2023-03-03T02:40:54.771Z,21.38
2023-03-03T02:43:29.299Z,21.33
2023-03-03T02:45:57.992Z,16.00
2023-03-03T02:48:26.493Z,19.48
2023-03-03T02:50:54.913Z,16.38
2023-03-03T02:53:23.405Z,20.65
2023-03-03T02:55:51.889Z,17.08
2023-03-03T02:58:20.392Z,20.17
2023-03-03T03:00:50.208Z,20.75
2023-03-03T03:03:18.779Z,27.05
2023-03-03T03:05:47.204Z,18.08
2023-03-03T03:08:15.681Z,23.35
2023-03-03T03:10:44.252Z,20.08
2023-03-03T03:13:12.977Z,22.85
2023-03-03T03:15:41.523Z,21.52
2023-03-03T03:18:11.323Z,21.65
2023-03-03T03:20:41.699Z,21.40
2023-03-03T03:23:11.455Z,23.38
2023-03-03T03:25:45.342Z,25.08
2023-03-03T03:28:13.920Z,20.75
2023-03-03T03:30:44.228Z,21.15
2023-03-03T03:33:14.442Z,19.85
2023-03-03T03:35:45.739Z,16.65
2023-03-03T03:38:15.295Z,17.05
2023-03-03T03:40:44.650Z,15.27
2023-03-03T03:43:13.128Z,15.70
2023-03-03T03:45:44.453Z,44.33
2023-03-03T03:48:14.455Z,15.97
2023-03-03T03:50:42.856Z,16.45
2023-03-03T03:53:11.351Z,13.57
2023-03-03T03:55:39.761Z,19.35
2023-03-03T03:58:08.257Z,19.42
2023-03-03T04:00:36.708Z,13.82
2023-03-03T04:03:05.398Z,15.00
2023-03-03T04:05:35.344Z,18.97
2023-03-03T04:08:04.113Z,12.77
2023-03-03T04:10:32.668Z,16.57
2023-03-03T04:13:01.144Z,15.67
2023-03-03T04:15:29.873Z,11.30
2023-03-03T04:17:58.344Z,13.83
2023-03-03T04:20:26.759Z,14.83
2023-03-03T04:22:56.817Z,15.40
2023-03-03T04:25:25.372Z,17.47
2023-03-03T04:27:54.373Z,14.97
2023-03-03T04:30:23.205Z,16.50
2023-03-03T04:32:53.269Z,18.10
2023-03-03T04:35:21.816Z,18.63
2023-03-03T04:37:50.325Z,13.83
2023-03-03T04:40:20.510Z,14.53
2023-03-03T04:42:49.012Z,18.03
2023-03-03T04:45:17.725Z,19.67
2023-03-03T04:47:46.159Z,24.00
2023-03-03T04:50:14.699Z,17.77
2023-03-03T04:52:43.162Z,18.37
2023-03-03T04:55:12.397Z,16.93
2023-03-03T04:57:42.200Z,25.50
2023-03-03T05:00:13.498Z,16.80
2023-03-03T05:02:42.578Z,16.60
2023-03-03T05:05:11.800Z,16.57
2023-03-03T05:07:40.301Z,20.27
2023-03-03T05:10:10.508Z,17.17
2023-03-03T05:12:38.962Z,23.23
2023-03-03T05:15:10.162Z,15.43
2023-03-03T05:17:38.804Z,20.97
2023-03-03T05:20:10.351Z,15.50
2023-03-03T05:22:38.745Z,18.53
2023-03-03T05:25:09.903Z,16.57
2023-03-03T05:27:38.364Z,17.53
2023-03-03T05:30:11.267Z,16.20
2023-03-03T05:32:39.876Z,17.47
2023-03-03T05:35:09.557Z,20.43
2023-03-03T05:37:40.209Z,37.23
2023-03-03T05:40:10.914Z,24.47
2023-03-03T05:42:39.341Z,22.97
2023-03-03T05:45:11.113Z,22.30
2023-03-03T05:47:39.699Z,22.77
2023-03-03T05:50:09.222Z,25.77
2023-03-03T05:52:37.650Z,21.10
2023-03-03T05:55:07.468Z,26.70
2023-03-03T05:57:35.941Z,21.23
2023-03-03T06:00:06.101Z,26.30
2023-03-03T06:02:36.175Z,25.50
2023-03-03T06:05:04.908Z,21.42
2023-03-03T06:07:33.357Z,21.50
2023-03-03T06:10:01.860Z,22.63
2023-03-03T06:12:30.338Z,30.90
2023-03-03T06:14:58.822Z,26.73
2023-03-03T06:17:27.285Z,28.90
2023-03-03T06:19:57.114Z,28.20
2023-03-03T06:22:25.622Z,31.60
2023-03-03T06:24:54.081Z,28.02
2023-03-03T06:27:22.745Z,29.50
2023-03-03T06:29:51.188Z,29.30
2023-03-03T06:32:19.686Z,32.83
2023-03-03T06:34:48.170Z,36.88
2023-03-03T06:37:18.073Z,27.25
2023-03-03T06:39:46.498Z,31.67
2023-03-03T06:42:14.940Z,32.55
2023-03-03T06:44:43.393Z,31.50
2023-03-03T06:47:11.888Z,32.90
2023-03-03T06:49:40.320Z,43.05
2023-03-03T06:52:14.884Z,36.33
2023-03-03T06:54:44.688Z,38.47
2023-03-03T06:57:21.737Z,33.28
2023-03-03T06:59:55.456Z,40.80
2023-03-03T07:02:24.636Z,39.00
2023-03-03T07:04:54.651Z,41.95
2023-03-03T07:07:26.153Z,37.70
2023-03-03T07:09:57.840Z,42.80
2023-03-03T07:12:30.933Z,37.05
2023-03-03T07:15:14.542Z,40.13
2023-03-03T07:17:49.788Z,50.05
2023-03-03T07:20:23.497Z,38.10
2023-03-03T07:22:53.705Z,34.58
2023-03-03T07:25:32.978Z,39.20
2023-03-03T07:28:13.350Z,38.10
2023-03-03T07:30:43.407Z,37.53
2023-03-03T07:33:26.230Z,37.63
2023-03-03T07:35:56.829Z,40.42
2023-03-03T07:38:32.517Z,39.33
2023-03-03T07:41:06.403Z,32.65
2023-03-03T07:43:40.401Z,35.53
2023-03-03T07:46:32.179Z,34.22
2023-03-03T07:49:01.612Z,33.65
2023-03-03T07:51:39.610Z,33.40
2023-03-03T07:54:36.398Z,37.50
2023-03-03T07:57:20.317Z,41.28
2023-03-03T07:59:51.290Z,30.20
2023-03-03T08:02:39.067Z,45.83
2023-03-03T08:05:34.849Z,36.88
2023-03-03T08:08:31.545Z,34.47
2023-03-03T08:11:01.808Z,33.30
2023-03-03T08:13:40.117Z,38.10
2023-03-03T08:16:36.804Z,35.47
2023-03-03T08:19:07.421Z,34.42
2023-03-03T08:21:37.883Z,33.13
2023-03-03T08:24:07.364Z,36.08
2023-03-03T08:26:35.970Z,34.53
2023-03-03T08:29:05.841Z,33.35
2023-03-03T08:31:41.209Z,39.90
2023-03-03T08:34:10.446Z,31.23
2023-03-03T08:36:38.956Z,33.83
2023-03-03T08:39:07.522Z,32.90
2023-03-03T08:41:36.075Z,51.13
2023-03-03T08:44:06.282Z,41.85
2023-03-03T08:46:34.921Z,32.35
2023-03-03T08:49:03.511Z,29.38
2023-03-03T08:51:34.253Z,28.63
2023-03-03T08:54:02.796Z,34.10
2023-03-03T08:56:31.337Z,30.75
2023-03-03T08:59:02.449Z,32.00
2023-03-03T09:01:33.391Z,27.88
2023-03-03T09:04:02.105Z,32.72
2023-03-03T09:06:30.730Z,29.73
2023-03-03T09:08:59.321Z,31.55
2023-03-03T09:11:30.942Z,45.10
2023-03-03T09:14:08.919Z,35.75
2023-03-03T09:16:41.376Z,35.08
2023-03-03T09:19:26.221Z,31.65
2023-03-03T09:21:56.836Z,30.50
2023-03-03T09:24:30.799Z,32.38
2023-03-03T09:27:00.549Z,33.92
2023-03-03T09:29:30.809Z,30.52
2023-03-03T09:32:03.446Z,37.92
2023-03-03T09:34:41.771Z,32.00
2023-03-03T09:37:23.964Z,30.73
2023-03-03T09:39:55.519Z,36.55
2023-03-03T09:42:58.883Z,32.00
2023-03-03T09:45:53.999Z,31.85
2023-03-03T09:48:50.452Z,36.08
2023-03-03T09:51:50.840Z,33.17
2023-03-03T09:54:38.593Z,29.13
2023-03-03T09:57:14.882Z,31.60
2023-03-03T10:00:05.635Z,36.88
2023-03-03T10:02:47.739Z,33.50
2023-03-03T10:05:30.187Z,29.15
2023-03-03T10:08:23.126Z,30.83
2023-03-03T10:11:03.409Z,33.28
2023-03-03T10:13:57.936Z,31.00
2023-03-03T10:16:55.235Z,31.10
2023-03-03T10:19:38.572Z,36.80
2023-03-03T10:22:25.840Z,29.88
2023-03-03T10:25:19.410Z,28.25
2023-03-03T10:28:20.851Z,32.05
2023-03-03T10:31:10.699Z,27.45
2023-03-03T10:33:48.261Z,27.58
2023-03-03T10:36:50.722Z,27.90
2023-03-03T10:39:44.336Z,30.73
2023-03-03T10:42:38.083Z,28.27
2023-03-03T10:45:43.106Z,30.55
2023-03-03T10:48:39.888Z,31.83
2023-03-03T10:51:26.529Z,30.00
2023-03-03T10:54:09.508Z,27.75
2023-03-03T10:56:53.324Z,27.92
2023-03-03T10:59:49.501Z,27.38
2023-03-03T11:02:24.275Z,24.17
2023-03-03T11:05:20.370Z,29.00
2023-03-03T11:07:55.465Z,27.02
2023-03-03T11:10:40.249Z,24.45
2023-03-03T11:13:19.976Z,25.88
2023-03-03T11:16:29.253Z,24.10
2023-03-03T11:19:14.059Z,23.80
2023-03-03T11:21:52.391Z,28.00
2023-03-03T11:24:54.250Z,26.92
2023-03-03T11:27:38.084Z,25.30
2023-03-03T11:30:35.839Z,29.90
2023-03-03T11:33:09.248Z,26.35
2023-03-03T11:35:46.441Z,25.85
2023-03-03T11:38:41.964Z,24.00
2023-03-03T11:41:20.512Z,26.58
2023-03-03T11:43:54.155Z,26.33
2023-03-03T11:46:31.012Z,24.50
2023-03-03T11:49:04.859Z,27.13
2023-03-03T11:51:48.898Z,23.17
2023-03-03T11:54:25.099Z,22.60
2023-03-03T11:57:06.603Z,22.02
2023-03-03T11:59:49.341Z,22.73
2023-03-03T12:02:45.309Z,27.27
2023-03-03T12:05:24.031Z,22.25
2023-03-03T12:08:02.905Z,26.08
2023-03-03T12:10:37.841Z,34.10
2023-03-03T12:13:16.986Z,26.90
2023-03-03T12:15:55.967Z,29.42
2023-03-03T12:18:51.774Z,27.17
2023-03-03T12:21:42.155Z,25.45
2023-03-03T12:24:35.373Z,28.75
2023-03-03T12:27:20.731Z,24.42
2023-03-03T12:30:06.382Z,30.73
2023-03-03T12:32:58.562Z,23.85
2023-03-03T12:35:37.902Z,26.35
2023-03-03T12:38:17.643Z,23.33
2023-03-03T12:40:53.767Z,34.70
2023-03-03T12:43:40.880Z,25.23
2023-03-03T12:46:17.857Z,25.33
2023-03-03T12:48:48.299Z,27.33
2023-03-03T12:51:35.174Z,24.77
2023-03-03T12:54:39.907Z,22.85
2023-03-03T12:57:20.806Z,22.80
2023-03-03T13:00:14.969Z,25.75
2023-03-03T13:02:56.704Z,24.65
2023-03-03T13:05:31.491Z,25.45
2023-03-03T13:08:42.331Z,29.63
2023-03-03T13:11:36.741Z,31.88
2023-03-03T13:14:22.634Z,22.45
2023-03-03T13:17:02.953Z,23.77
2023-03-03T13:19:37.498Z,25.98
2023-03-03T13:22:13.984Z,27.17
2023-03-03T13:24:58.033Z,28.33
2023-03-03T13:27:33.630Z,26.65
2023-03-03T13:30:10.011Z,28.45
2023-03-03T13:32:45.189Z,26.27
2023-03-03T13:35:30.345Z,27.02
2023-03-03T13:38:00.613Z,28.15
2023-03-03T13:40:42.063Z,25.85
2023-03-03T13:43:18.746Z,26.60
2023-03-03T13:46:00.261Z,21.98
2023-03-03T13:49:24.728Z,24.45
2023-03-03T13:52:01.793Z,23.90
2023-03-03T13:55:03.511Z,28.42
2023-03-03T13:57:52.832Z,23.60
2023-03-03T14:00:32.040Z,26.80
2023-03-03T14:03:57.545Z,23.27
2023-03-03T14:06:29.025Z,23.52
2023-03-03T14:09:22.116Z,28.25
2023-03-03T14:11:57.863Z,23.48
2023-03-03T14:14:44.931Z,25.63
2023-03-03T14:17:27.153Z,25.30
2023-03-03T14:20:12.722Z,27.70
2023-03-03T14:22:52.527Z,35.58
2023-03-03T14:25:21.619Z,27.65
2023-03-03T14:28:10.793Z,25.17
2023-03-03T14:30:42.367Z,24.33
2023-03-03T14:33:22.388Z,24.73
2023-03-03T14:36:06.437Z,24.13
2023-03-03T14:38:48.339Z,25.92
2023-03-03T14:41:21.399Z,19.98
2023-03-03T14:44:00.832Z,23.25
2023-03-03T14:46:40.822Z,22.98
2023-03-03T14:49:17.450Z,21.73
2023-03-03T14:51:48.640Z,23.98
2023-03-03T14:54:25.915Z,21.88
2023-03-03T14:57:08.332Z,20.33
2023-03-03T14:59:36.943Z,22.35
2023-03-03T15:02:37.892Z,18.27
2023-03-03T15:05:31.892Z,18.73
2023-03-03T15:08:12.391Z,19.92
2023-03-03T15:10:42.992Z,18.00
2023-03-03T15:13:36.596Z,20.08
2023-03-03T15:16:13.340Z,17.38
2023-03-03T15:19:32.589Z,21.17
2023-03-03T15:22:11.799Z,26.25
2023-03-03T15:24:47.607Z,25.52
2023-03-03T15:27:25.791Z,16.38
2023-03-03T15:30:10.882Z,15.63
2023-03-03T15:32:48.541Z,17.58
2023-03-03T15:35:33.983Z,14.52
2023-03-03T15:38:12.293Z,15.18
2023-03-03T15:40:49.117Z,15.10
2023-03-03T15:43:28.412Z,15.02
2023-03-03T15:46:17.497Z,26.52
2023-03-03T15:49:06.063Z,19.70
2023-03-03T15:52:03.884Z,17.73
2023-03-03T15:54:50.150Z,14.32
2023-03-03T15:57:28.311Z,14.73
2023-03-03T16:00:22.760Z,19.77
2023-03-03T16:02:58.813Z,15.15
2023-03-03T16:05:32.240Z,14.88
2023-03-03T16:08:13.794Z,13.25
2023-03-03T16:10:58.835Z,21.40
2023-03-03T16:14:01.790Z,15.70
2023-03-03T16:16:44.200Z,14.27
2023-03-03T16:19:28.923Z,15.82
2023-03-03T16:22:23.739Z,16.25
2023-03-03T16:25:11.676Z,14.18
2023-03-03T16:27:49.359Z,19.30
2023-03-03T16:30:37.150Z,20.23
2023-03-03T16:33:20.856Z,15.57
2023-03-03T16:35:58.653Z,22.13
2023-03-03T16:38:36.884Z,18.25
2023-03-03T16:41:14.073Z,22.58
2023-03-03T16:44:05.911Z,18.25
2023-03-03T16:46:39.892Z,24.65
2023-03-03T16:49:15.427Z,22.45
2023-03-03T16:51:51.457Z,23.63
2023-03-03T16:54:31.857Z,17.05
2023-03-03T16:57:12.749Z,19.42
2023-03-03T16:59:57.075Z,19.42
2023-03-03T17:03:18.213Z,20.00
2023-03-03T17:05:56.951Z,19.88
2023-03-03T17:09:00.478Z,18.67
2023-03-03T17:11:44.604Z,24.02
2023-03-03T17:14:35.620Z,18.85
2023-03-03T17:17:14.916Z,20.73
2023-03-03T17:19:58.585Z,20.45
2023-03-03T17:22:42.777Z,20.35
2023-03-03T17:25:20.830Z,22.85
2023-03-03T17:28:20.570Z,21.30
2023-03-03T17:31:03.660Z,18.35
2023-03-03T17:34:02.463Z,23.08
2023-03-03T17:36:46.988Z,18.67
2023-03-03T17:39:48.387Z,22.58
2023-03-03T17:42:26.534Z,21.50
2023-03-03T17:45:06.010Z,25.42
2023-03-03T17:47:51.432Z,17.60
2023-03-03T17:50:44.122Z,19.25
2023-03-03T17:54:07.820Z,18.45
2023-03-03T17:56:48.582Z,15.05
2023-03-03T17:59:48.012Z,20.80
2023-03-03T18:03:28.299Z,19.98
2023-03-03T18:06:39.431Z,23.50
2023-03-03T18:09:41.047Z,24.05
2023-03-03T18:12:24.885Z,27.95
2023-03-03T18:15:29.832Z,19.33
2023-03-03T18:18:53.508Z,18.30
2023-03-03T18:21:29.183Z,17.67
2023-03-03T18:24:28.759Z,16.55
2023-03-03T18:27:29.124Z,18.75
2023-03-03T18:30:33.881Z,15.95
2023-03-03T18:33:18.436Z,18.92
2023-03-03T18:35:51.280Z,17.80
2023-03-03T18:38:40.079Z,24.63
2023-03-03T18:41:15.074Z,22.10
2023-03-03T18:44:00.879Z,21.83
2023-03-03T18:46:53.609Z,20.05
2023-03-03T18:50:10.655Z,23.90
2023-03-03T18:53:28.863Z,22.60
2023-03-03T18:56:00.466Z,21.90
2023-03-03T18:58:45.507Z,22.75
2023-03-03T19:01:37.369Z,24.95
2023-03-03T19:04:26.330Z,22.52
2023-03-03T19:07:28.216Z,24.60
2023-03-03T19:10:05.999Z,20.02
2023-03-03T19:13:02.204Z,29.67
2023-03-03T19:15:58.606Z,30.08
2023-03-03T19:18:30.351Z,26.15
2023-03-03T19:21:02.979Z,23.58
2023-03-03T19:24:00.392Z,26.80
2023-03-03T19:27:26.910Z,24.33
2023-03-03T19:30:31.938Z,29.33
2023-03-03T19:33:53.456Z,27.02
2023-03-03T19:36:43.541Z,22.08
2023-03-03T19:39:46.463Z,24.98
2023-03-03T19:42:35.993Z,22.60
2023-03-03T19:45:24.241Z,25.60
2023-03-03T19:48:07.144Z,25.60
2023-03-03T19:50:49.690Z,24.60
2023-03-03T19:53:31.681Z,31.13
2023-03-03T19:56:24.552Z,28.70
2023-03-03T19:59:21.550Z,27.75
2023-03-03T20:02:21.824Z,26.67
2023-03-03T20:05:13.685Z,24.85
2023-03-03T20:07:53.695Z,26.90
2023-03-03T20:10:47.599Z,23.55
2023-03-03T20:13:46.674Z,26.17
2023-03-03T20:16:35.140Z,40.83
2023-03-03T20:19:31.215Z,27.30
2023-03-03T20:22:10.764Z,28.75
2023-03-03T20:25:09.553Z,31.60
2023-03-03T20:27:52.774Z,24.02
2023-03-03T20:30:43.825Z,22.50
2023-03-03T20:33:30.962Z,21.95
2023-03-03T20:36:18.435Z,27.05
2023-03-03T20:39:04.725Z,26.33
2023-03-03T20:41:55.078Z,24.17
2023-03-03T20:44:43.957Z,23.83
2023-03-03T20:47:24.266Z,30.00
2023-03-03T20:50:25.822Z,21.48
2023-03-03T20:53:10.357Z,29.45
2023-03-03T20:55:55.631Z,22.38
2023-03-03T20:58:39.787Z,17.63
2023-03-03T21:01:13.567Z,21.23
2023-03-03T21:03:46.153Z,24.67
2023-03-03T21:06:21.445Z,21.67
2023-03-03T21:08:57.550Z,20.13
2023-03-03T21:11:44.895Z,21.80
2023-03-03T21:14:24.744Z,24.27
2023-03-03T21:16:57.326Z,23.23
2023-03-03T21:19:31.215Z,21.35
2023-03-03T21:22:03.180Z,24.85
2023-03-03T21:24:54.919Z,23.00
2023-03-03T21:27:29.798Z,20.17
2023-03-03T21:30:11.610Z,26.27
2023-03-03T21:32:44.447Z,26.05
2023-03-03T21:35:16.439Z,24.33
2023-03-03T21:37:50.483Z,21.98
2023-03-03T21:40:25.527Z,22.83
2023-03-03T21:42:56.509Z,20.83
2023-03-03T21:45:25.850Z,22.50
2023-03-03T21:47:56.742Z,24.83
2023-03-03T21:50:27.369Z,26.15
2023-03-03T21:52:57.297Z,25.77
2023-03-03T21:55:26.844Z,25.27
2023-03-03T21:57:55.414Z,22.60
2023-03-03T22:00:24.487Z,25.33
2023-03-03T22:02:54.407Z,24.20
2023-03-03T22:05:23.153Z,30.13
2023-03-03T22:07:51.629Z,30.17
2023-03-03T22:10:21.488Z,28.05
2023-03-03T22:12:49.957Z,26.75
2023-03-03T22:15:18.592Z,26.85
2023-03-03T22:17:47.153Z,23.50
2023-03-03T22:20:17.793Z,22.67
2023-03-03T22:22:46.560Z,27.13
2023-03-03T22:25:15.095Z,24.05
2023-03-03T22:27:44.961Z,26.50
2023-03-03T22:30:14.961Z,23.30
2023-03-03T22:32:43.365Z,20.95
2023-03-03T22:35:12.115Z,22.10
2023-03-03T22:37:40.590Z,20.08
2023-03-03T22:40:11.016Z,24.45
2023-03-03T22:42:39.532Z,23.33
2023-03-03T22:45:11.337Z,22.45
2023-03-03T22:47:39.797Z,22.15
2023-03-03T22:50:09.995Z,19.05
2023-03-03T22:52:38.463Z,23.17
2023-03-03T22:55:08.661Z,23.10
2023-03-03T22:57:37.257Z,21.80
2023-03-03T23:00:11.668Z,22.13
2023-03-03T23:02:40.717Z,25.02
2023-03-03T23:05:11.114Z,22.27
2023-03-03T23:07:41.957Z,24.67
2023-03-03T23:10:12.258Z,23.67
2023-03-03T23:12:40.771Z,22.55
2023-03-03T23:15:14.326Z,25.40
2023-03-03T23:17:44.628Z,20.92
2023-03-03T23:20:15.895Z,20.60
2023-03-03T23:22:44.369Z,25.90
2023-03-03T23:25:13.840Z,23.52
2023-03-03T23:27:42.576Z,20.27
2023-03-03T23:30:15.910Z,20.95
2023-03-03T23:32:44.417Z,25.95
2023-03-03T23:35:12.943Z,25.30
2023-03-03T23:37:41.379Z,21.23
2023-03-03T23:40:12.115Z,22.05
2023-03-03T23:42:40.629Z,20.10
2023-03-03T23:45:12.757Z,25.40
2023-03-03T23:47:41.256Z,21.93
2023-03-03T23:50:11.996Z,24.20
2023-03-03T23:52:40.932Z,23.00
2023-03-03T23:55:10.804Z,23.80
2023-03-03T23:57:39.301Z,22.73
